Time;durP1;ratioP1;P1;durP2;ratioP2;P2;SDS_P1;SDS_P2;PMS_P1;PMS_P2;Temp;Humidity;BMP_temperature;BMP_pressure;BME280_temperature;BME280_humidity;BME280_pressure;Samples;Min_cycle;Max_cycle;Signal;HPM_P1;HPM_P2
2022/04/29 00:00:25;;;;;;;11.20;4.10;;;;;;;10.06;65.90;101463.22;5080065;28;20482;-79
2022/04/29 00:02:51;;;;;;;11.43;4.27;;;;;;;10.13;65.45;101463.38;5062745;28;20263;-79
2022/04/29 00:05:18;;;;;;;8.00;3.30;;;;;;;10.20;65.11;101468.94;5080931;28;20288;-79
2022/04/29 00:07:43;;;;;;;7.95;4.05;;;;;;;10.06;65.88;101463.22;5080880;28;20037;-79
2022/04/29 00:10:14;;;;;;;9.90;4.47;;;;;;;9.97;66.10;101472.38;5080846;28;20056;-79
2022/04/29 00:12:43;;;;;;;9.57;3.63;;;;;;;9.97;66.25;101472.38;5081224;28;20029;-79
2022/04/29 00:15:11;;;;;;;9.85;5.13;;;;;;;9.82;67.01;101475.97;5084473;28;20056;-79
2022/04/29 00:17:37;;;;;;;10.55;4.57;;;;;;;9.70;66.88;101470.09;5082320;28;20039;-79
2022/04/29 00:20:02;;;;;;;10.60;5.13;;;;;;;9.56;67.39;101466.28;5081981;28;20024;-79
2022/04/29 00:22:28;;;;;;;7.88;4.30;;;;;;;9.54;67.81;101462.94;5082524;28;20044;-79
2022/04/29 00:24:53;;;;;;;13.80;4.77;;;;;;;9.49;68.24;101459.94;5082951;28;20044;-78
2022/04/29 00:27:18;;;;;;;16.50;5.22;;;;;;;9.47;68.25;101459.28;5087305;28;20251;-78
2022/04/29 00:29:44;;;;;;;14.80;5.17;;;;;;;9.45;68.70;101465.84;5087290;28;20495;-79
2022/04/29 00:32:10;;;;;;;9.77;4.72;;;;;;;9.40;69.07;101467.19;5086637;28;20029;-79
2022/04/29 00:34:35;;;;;;;12.53;5.50;;;;;;;9.43;69.06;101462.47;5068636;28;20037;-78
2022/04/29 00:37:00;;;;;;;9.70;4.57;;;;;;;9.43;68.91;101460.63;5085739;28;20263;-78
2022/04/29 00:39:26;;;;;;;9.98;4.60;;;;;;;9.48;68.63;101454.72;5085361;28;20067;-78
2022/04/29 00:41:52;;;;;;;10.73;4.90;;;;;;;9.46;69.11;101457.59;5066565;28;20066;-78
2022/04/29 00:44:17;;;;;;;11.30;4.78;;;;;;;9.44;68.94;101453.38;5082832;28;20259;-79
2022/04/29 00:46:44;;;;;;;10.70;4.72;;;;;;;9.38;69.43;101453.06;5080844;28;20043;-79
2022/04/29 00:49:12;;;;;;;9.45;4.90;;;;;;;9.31;69.49;101452.09;5081396;28;20024;-79
2022/04/29 00:51:39;;;;;;;12.68;4.90;;;;;;;9.26;69.72;101443.69;5080474;28;20078;-79
2022/04/29 00:54:22;;;;;;;9.35;4.65;;;;;;;9.19;70.45;101445.38;5080507;28;20029;-79
2022/04/29 00:56:51;;;;;;;10.35;4.50;;;;;;;9.14;70.50;101430.75;5080755;28;20459;-79
2022/04/29 00:59:24;;;;;;;8.93;4.45;;;;;;;9.13;70.65;101442.53;5080037;28;20115;-79
2022/04/29 01:01:50;;;;;;;8.38;4.47;;;;;;;9.10;70.74;101440.19;5082608;28;20029;-79
2022/04/29 01:04:21;;;;;;;9.48;4.82;;;;;;;9.08;71.05;101436.81;5084683;28;20511;-78
2022/04/29 01:06:47;;;;;;;16.25;4.78;;;;;;;8.97;71.44;101444.22;5085972;28;20475;-79
2022/04/29 01:09:12;;;;;;;11.18;5.68;;;;;;;8.90;71.62;101437.00;5085487;28;20029;-79
2022/04/29 01:11:39;;;;;;;10.73;4.33;;;;;;;8.78;72.11;101430.31;5085423;28;20126;-79
2022/04/29 01:14:04;;;;;;;;;;;;;;;8.76;72.34;101432.31;5084904;28;20055;-79
2022/04/29 01:16:29;;;;;;;11.40;4.88;;;;;;;8.72;72.52;101431.81;5084192;28;19919;-79
2022/04/29 01:18:55;;;;;;;10.75;5.30;;;;;;;8.64;72.84;101429.94;5084113;28;20080;-78
2022/04/29 01:21:20;;;;;;;9.70;4.70;;;;;;;8.63;72.71;101427.44;5081370;28;20032;-78
2022/04/29 01:23:45;;;;;;;17.80;5.28;;;;;;;8.68;72.78;101423.25;5081733;28;20043;-79
2022/04/29 01:26:15;;;;;;;11.80;4.77;;;;;;;8.64;73.30;101427.25;5080553;28;20028;-79
2022/04/29 01:28:43;;;;;;;16.90;5.38;;;;;;;8.60;73.12;101417.03;5082153;28;20025;-79
2022/04/29 01:31:12;;;;;;;10.20;4.93;;;;;;;8.49;73.70;101423.56;5082498;28;20082;-79
2022/04/29 01:33:40;;;;;;;14.98;5.97;;;;;;;8.43;74.18;101418.84;5082611;28;20029;-78
2022/04/29 01:36:06;;;;;;;12.73;5.13;;;;;;;8.42;74.07;101411.81;5083586;28;20029;-79
2022/04/29 01:38:31;;;;;;;9.10;5.05;;;;;;;8.31;74.81;101399.53;5065937;28;20471;-79
2022/04/29 01:40:57;;;;;;;9.83;5.03;;;;;;;8.35;74.78;101410.81;5078344;28;20044;-77
2022/04/29 01:43:22;;;;;;;9.07;4.80;;;;;;;8.31;74.67;101396.00;5057961;28;20028;-76
2022/04/29 01:45:47;;;;;;;11.47;5.67;;;;;;;8.20;75.53;101401.69;5075285;28;20058;-79
2022/04/29 01:48:13;;;;;;;11.37;5.27;;;;;;;8.15;75.78;101396.81;5076122;28;20032;-79
2022/04/29 01:50:38;;;;;;;11.03;5.13;;;;;;;8.13;75.49;101404.19;5074896;28;20316;-77
2022/04/29 01:53:03;;;;;;;11.90;5.20;;;;;;;8.12;75.78;101391.78;5075006;28;20060;-77
2022/04/29 01:55:29;;;;;;;14.40;5.10;;;;;;;8.13;76.13;101390.78;5074943;28;20092;-78
2022/04/29 01:57:56;;;;;;;11.60;4.77;;;;;;;8.09;75.90;101400.16;5057489;28;20759;-77
2022/04/29 02:00:22;;;;;;;11.52;4.65;;;;;;;7.99;76.32;101405.69;5074740;28;20399;-76
2022/04/29 02:02:47;;;;;;;11.57;5.20;;;;;;;7.98;76.60;101403.16;5075184;28;20475;-76
2022/04/29 02:05:13;;;;;;;12.57;4.90;;;;;;;7.95;76.83;101416.91;5073994;28;20040;-76
2022/04/29 02:07:40;;;;;;;9.27;4.57;;;;;;;7.87;76.75;101408.84;5074760;28;20101;-76
2022/04/29 02:10:06;;;;;;;10.00;4.75;;;;;;;7.90;76.52;101413.84;5074220;28;20040;-76
2022/04/29 02:12:31;;;;;;;14.48;4.95;;;;;;;7.86;76.84;101408.00;5078977;28;20028;-78
2022/04/29 02:14:58;;;;;;;11.63;4.80;;;;;;;7.86;77.16;101404.47;5084715;28;20033;-78
2022/04/29 02:17:24;;;;;;;12.85;4.80;;;;;;;7.80;77.32;101410.50;5077981;28;20070;-76
2022/04/29 02:19:49;;;;;;;10.50;4.43;;;;;;;7.78;77.02;101412.50;5080036;28;20032;-76
2022/04/29 02:22:15;;;;;;;9.53;4.43;;;;;;;7.79;77.49;101408.81;5085797;28;20263;-78
2022/04/29 02:24:42;;;;;;;;;;;;;;;7.79;76.98;101398.91;5078397;28;20028;-77
2022/04/29 02:27:08;;;;;;;9.90;4.97;;;;;;;7.78;76.91;101399.06;5075611;28;19955;-76
2022/04/29 02:29:34;;;;;;;11.75;4.60;;;;;;;7.59;77.40;101402.84;5074486;28;20032;-76
2022/04/29 02:31:59;;;;;;;9.77;4.60;;;;;;;7.55;77.82;101402.34;5077651;28;20028;-78
2022/04/29 02:34:25;;;;;;;11.27;4.13;;;;;;;7.52;78.06;101404.53;5075930;28;20486;-76
2022/04/29 02:36:51;;;;;;;14.10;4.88;;;;;;;7.46;78.09;101402.47;5073347;28;20366;-78
2022/04/29 02:39:16;;;;;;;8.93;4.53;;;;;;;7.50;78.03;101406.53;5079226;28;20531;-78
2022/04/29 02:41:42;;;;;;;11.27;4.20;;;;;;;7.52;77.91;101401.84;5078803;28;20075;-78
2022/04/29 02:44:07;;;;;;;11.87;5.20;;;;;;;7.42;78.11;101403.78;5074720;28;20085;-77
2022/04/29 02:46:33;;;;;;;10.67;4.83;;;;;;;7.35;78.49;101403.59;5073899;28;20428;-76
2022/04/29 02:48:58;;;;;;;10.38;4.45;;;;;;;7.36;78.69;101397.22;5074036;28;20489;-79
2022/04/29 02:51:23;;;;;;;9.90;4.03;;;;;;;7.36;78.08;101399.06;5079611;28;20031;-78
2022/04/29 02:53:49;;;;;;;8.87;4.23;;;;;;;7.29;78.66;101398.88;5062620;28;20037;-79
2022/04/29 02:56:15;;;;;;;7.97;4.05;;;;;;;7.27;78.59;101392.84;5056707;28;20413;-76
2022/04/29 02:58:40;;;;;;;13.70;4.33;;;;;;;7.21;78.63;101402.34;5073775;28;20043;-76
2022/04/29 03:01:06;;;;;;;10.53;4.77;;;;;;;7.13;78.33;101402.31;5073469;28;20034;-77
2022/04/29 03:03:31;;;;;;;7.82;3.88;;;;;;;7.13;78.51;101396.94;5072927;28;20084;-77
2022/04/29 03:05:56;;;;;;;7.70;3.57;;;;;;;7.09;78.66;101400.94;5072918;28;20040;-77
2022/04/29 03:08:22;;;;;;;9.20;3.70;;;;;;;7.04;78.90;101400.56;5073374;28;20031;-76
2022/04/29 03:10:47;;;;;;;7.90;3.50;;;;;;;7.05;78.98;101401.41;5073343;28;20067;-78
2022/04/29 03:13:13;;;;;;;9.50;4.00;;;;;;;7.08;78.88;101398.41;5077450;28;20471;-76
2022/04/29 03:15:38;;;;;;;8.93;3.80;;;;;;;7.04;78.35;101400.56;5055429;28;20059;-76
2022/04/29 03:18:20;;;;;;;10.33;3.47;;;;;;;7.01;78.13;101403.56;5072892;28;20033;-76
2022/04/29 03:20:47;;;;;;;12.00;3.50;;;;;;;6.96;78.32;101398.69;5073249;28;20029;-76
2022/04/29 03:23:13;;;;;;;6.93;2.95;;;;;;;6.93;78.50;101399.00;5073090;28;20111;-76
2022/04/29 03:25:41;;;;;;;9.63;3.10;;;;;;;6.89;78.14;101392.28;5055142;28;20048;-76
2022/04/29 03:28:07;;;;;;;8.63;3.35;;;;;;;6.87;78.05;101391.59;5072955;28;20021;-76
2022/04/29 03:30:34;;;;;;;10.68;3.25;;;;;;;6.89;78.26;101394.94;5073217;28;20526;-76
2022/04/29 03:33:01;;;;;;;6.30;2.90;;;;;;;6.84;78.45;101407.97;5073438;28;20043;-78
2022/04/29 03:35:26;;;;;;;7.78;3.58;;;;;;;6.87;78.23;101396.94;5073381;28;20043;-76
2022/04/29 03:37:53;;;;;;;11.27;3.58;;;;;;;6.78;78.24;101395.22;5077038;28;20386;-78
2022/04/29 03:40:21;;;;;;;11.18;3.42;;;;;;;6.76;78.07;101397.22;5074679;28;20086;-78
2022/04/29 03:42:47;;;;;;;6.22;2.92;;;;;;;6.78;78.31;101395.22;5077707;28;20068;-79
2022/04/29 03:45:13;;;;;;;;;;;;;;;6.72;78.16;101397.66;5075143;28;20037;-79
2022/04/29 03:47:38;;;;;;;9.25;2.53;;;;;;;6.73;78.32;101383.28;5059357;28;20500;-78
2022/04/29 03:50:05;;;;;;;9.87;3.60;;;;;;;6.73;78.33;101383.28;5060240;28;20064;-78
2022/04/29 03:52:30;;;;;;;9.68;3.13;;;;;;;6.73;78.25;101394.84;5077608;28;20020;-76
2022/04/29 03:54:56;;;;;;;7.43;3.00;;;;;;;6.67;78.83;101373.19;5076962;28;20037;-78
2022/04/29 03:57:21;;;;;;;8.15;3.42;;;;;;;6.69;78.48;101376.56;5081618;28;20112;-78
2022/04/29 03:59:48;;;;;;;8.00;2.73;;;;;;;6.63;78.71;101369.97;5063736;28;20056;-78
2022/04/29 04:02:13;;;;;;;8.73;3.25;;;;;;;6.62;78.58;101384.38;5077595;28;20489;-76
2022/04/29 04:04:39;;;;;;;7.97;2.97;;;;;;;6.63;78.59;101381.53;5076524;28;20083;-77
2022/04/29 04:07:04;;;;;;;8.33;3.10;;;;;;;6.54;79.40;101389.66;5076263;28;20035;-77
2022/04/29 04:09:29;;;;;;;6.83;2.93;;;;;;;6.51;79.50;101385.47;5076309;28;20468;-77
2022/04/29 04:11:55;;;;;;;10.03;3.43;;;;;;;6.45;79.01;101380.72;5076567;28;20111;-77
2022/04/29 04:14:20;;;;;;;10.80;4.50;;;;;;;6.51;78.71;101385.47;5058437;28;20043;-77
2022/04/29 04:16:46;;;;;;;7.97;3.20;;;;;;;6.44;79.73;101384.41;5076264;28;20294;-77
2022/04/29 04:19:11;;;;;;;9.27;3.90;;;;;;;6.44;79.38;101381.75;5076542;28;20170;-77
2022/04/29 04:21:37;;;;;;;8.03;3.37;;;;;;;6.37;79.75;101379.81;5079192;28;20049;-77
2022/04/29 04:24:03;;;;;;;13.23;3.80;;;;;;;6.35;79.96;101385.31;5060795;28;20028;-77
2022/04/29 04:26:28;;;;;;;;;;;;;;;6.42;79.77;101386.41;5079463;28;20556;-78
2022/04/29 04:28:54;;;;;;;8.63;3.53;;;;;;;6.38;80.12;101384.19;5079893;28;19912;-77
2022/04/29 04:31:24;;;;;;;8.17;3.90;;;;;;;6.50;79.67;101390.97;5078580;28;20439;-78
2022/04/29 04:33:49;;;;;;;16.23;4.18;;;;;;;6.53;78.93;101390.66;5078046;28;20293;-77
2022/04/29 04:36:15;;;;;;;10.18;3.17;;;;;;;6.43;79.85;101398.78;5077393;28;20085;-77
2022/04/29 04:38:41;;;;;;;10.83;4.50;;;;;;;6.43;79.74;101387.25;5077756;28;20047;-77
2022/04/29 04:41:08;;;;;;;;;;;;;;;6.42;79.50;101383.72;5077776;28;20020;-78
2022/04/29 04:43:34;;;;;;;8.05;3.28;;;;;;;6.40;80.25;101393.75;5077496;28;19913;-77
2022/04/29 04:45:59;;;;;;;10.15;3.65;;;;;;;6.37;79.63;101394.03;5076484;28;20064;-77
2022/04/29 04:48:25;;;;;;;10.67;3.60;;;;;;;6.32;80.18;101392.81;5075974;28;20059;-77
2022/04/29 04:50:50;;;;;;;7.53;3.23;;;;;;;6.28;79.94;101393.13;5075680;28;20056;-77
2022/04/29 04:53:15;;;;;;;10.32;3.58;;;;;;;6.34;80.64;101389.00;5076243;28;20028;-77
2022/04/29 04:55:41;;;;;;;10.07;3.90;;;;;;;6.25;80.56;101384.56;5078061;28;20036;-77
2022/04/29 04:58:08;;;;;;;12.73;4.50;;;;;;;6.26;80.47;101391.63;5078383;28;20501;-77
2022/04/29 05:00:33;;;;;;;12.90;4.47;;;;;;;6.21;80.70;101388.53;5078533;28;20036;-77
2022/04/29 05:02:58;;;;;;;9.87;3.40;;;;;;;6.30;80.38;101386.78;5075911;28;20097;-77
2022/04/29 05:05:24;;;;;;;10.47;4.07;;;;;;;6.33;80.34;101394.50;5056558;28;20059;-77
2022/04/29 05:07:49;;;;;;;12.63;3.60;;;;;;;6.31;80.25;101383.09;5075240;28;20481;-78
2022/04/29 05:10:14;;;;;;;12.87;3.93;;;;;;;6.36;80.45;101392.34;5076990;28;20115;-76
2022/04/29 05:12:45;;;;;;;9.40;3.47;;;;;;;6.38;80.08;101390.38;5076070;28;20538;-77
2022/04/29 05:15:11;;;;;;;9.38;3.60;;;;;;;6.45;80.53;101388.75;5078500;28;20024;-77
2022/04/29 05:17:40;;;;;;;12.68;4.05;;;;;;;6.44;80.00;101387.09;5060077;28;20028;-77
2022/04/29 05:20:07;;;;;;;12.18;3.83;;;;;;;6.34;80.72;101386.31;5077860;28;20036;-77
2022/04/29 05:22:32;;;;;;;9.88;3.20;;;;;;;6.28;80.59;101401.16;5078644;28;20487;-77
2022/04/29 05:24:58;;;;;;;9.20;3.53;;;;;;;6.36;80.17;101391.53;5079487;28;20028;-77
2022/04/29 05:27:24;;;;;;;12.23;3.30;;;;;;;6.33;80.21;101378.44;5077457;28;20064;-78
2022/04/29 05:29:49;;;;;;;9.60;3.65;;;;;;;6.42;80.45;101388.25;5058920;28;20040;-77
2022/04/29 05:32:16;;;;;;;11.32;4.45;;;;;;;6.25;81.04;101380.06;5058137;28;20031;-77
2022/04/29 05:34:42;;;;;;;8.75;3.63;;;;;;;6.25;81.27;101384.56;5076461;28;20029;-78
2022/04/29 05:37:07;;;;;;;11.50;3.55;;;;;;;6.35;80.44;101390.69;5075697;28;20419;-78
2022/04/29 05:42:18;;;;;;;8.85;3.50;;;;;;;6.41;80.23;101381.19;5076084;28;20039;-77
2022/04/29 05:44:44;;;;;;;11.43;3.47;;;;;;;6.48;80.51;101388.44;5076376;28;20028;-79
2022/04/29 05:47:09;;;;;;;10.20;4.50;;;;;;;6.47;80.08;101378.72;5074340;28;20080;-77
2022/04/29 05:49:35;;;;;;;10.23;3.80;;;;;;;6.68;79.86;101374.88;5074364;28;20048;-77
2022/04/29 05:52:03;;;;;;;13.48;4.10;;;;;;;6.63;79.91;101368.13;5073849;28;20029;-77
2022/04/29 05:54:29;;;;;;;10.20;4.38;;;;;;;6.85;79.29;101374.81;5073757;28;20025;-77
2022/04/29 05:56:54;;;;;;;13.32;4.30;;;;;;;7.00;78.91;101375.06;5074577;28;20032;-78
2022/04/29 05:59:19;;;;;;;12.52;4.40;;;;;;;6.96;78.93;101374.59;5056412;28;20136;-77
2022/04/29 06:01:45;;;;;;;8.53;3.27;;;;;;;7.05;78.65;101375.44;5073215;28;20021;-77
2022/04/29 06:04:10;;;;;;;8.47;3.47;;;;;;;6.96;78.61;101376.41;5074252;28;20279;-78
2022/04/29 06:06:36;;;;;;;10.13;4.28;;;;;;;6.90;78.65;101385.06;5074863;28;20117;-78
2022/04/29 06:09:01;;;;;;;9.07;3.57;;;;;;;7.17;78.26;101386.72;5073721;28;20051;-77
2022/04/29 06:11:27;;;;;;;9.33;4.47;;;;;;;7.10;77.71;101394.59;5055666;28;20058;-77
2022/04/29 06:13:53;;;;;;;9.02;3.67;;;;;;;7.08;78.30;101398.41;5073218;28;20020;-78
2022/04/29 06:16:19;;;;;;;13.48;4.97;;;;;;;7.16;77.39;101401.16;5073871;28;20103;-77
2022/04/29 06:18:45;;;;;;;11.75;4.28;;;;;;;7.31;77.21;101400.41;5056037;28;20041;-78
2022/04/29 06:21:10;;;;;;;13.23;4.05;;;;;;;7.38;77.32;101399.75;5077268;28;20064;-78
2022/04/29 06:23:35;;;;;;;12.43;4.23;;;;;;;7.43;76.78;101402.78;5077169;28;20107;-79
2022/04/29 06:26:01;;;;;;;15.57;4.53;;;;;;;7.60;75.77;101396.50;5080471;28;20024;-77
2022/04/29 06:28:26;;;;;;;8.83;3.77;;;;;;;7.45;77.21;101398.94;5056637;28;20101;-77
2022/04/29 06:30:52;;;;;;;12.82;4.55;;;;;;;7.51;76.65;101387.59;5074511;28;20526;-77
2022/04/29 06:33:17;;;;;;;10.80;4.60;;;;;;;7.66;75.91;101390.50;5074204;28;20126;-77
2022/04/29 06:35:43;;;;;;;8.13;3.72;;;;;;;7.69;75.89;101392.84;5073556;28;20340;-78
2022/04/29 06:38:11;;;;;;;14.75;4.13;;;;;;;7.68;76.14;101393.03;5073267;28;20043;-78
2022/04/29 06:40:36;;;;;;;10.73;3.92;;;;;;;7.65;75.86;101391.50;5075657;28;20039;-79
2022/04/29 06:43:02;;;;;;;9.55;4.07;;;;;;;7.87;75.63;101384.69;5056350;28;20058;-78
2022/04/29 06:45:28;;;;;;;12.27;4.40;;;;;;;7.86;75.50;101386.53;5075344;28;20107;-78
2022/04/29 06:47:53;;;;;;;8.70;3.67;;;;;;;7.83;75.68;101383.34;5075078;28;20456;-78
2022/04/29 06:50:18;;;;;;;11.60;5.00;;;;;;;7.99;75.02;101376.16;5074329;28;20114;-78
2022/04/29 06:52:44;;;;;;;10.75;4.30;;;;;;;8.06;75.41;101383.56;5074900;28;20439;-78
2022/04/29 06:55:09;;;;;;;11.03;4.83;;;;;;;7.99;75.36;101376.16;5074280;28;20161;-77
2022/04/29 06:57:34;;;;;;;15.40;4.87;;;;;;;8.08;75.69;101381.53;5074486;28;20434;-79
2022/04/29 07:00:00;;;;;;;13.13;4.90;;;;;;;8.04;74.80;101390.94;5073694;28;20039;-79
2022/04/29 07:02:26;;;;;;;11.98;4.97;;;;;;;8.07;75.37;101399.47;5076352;28;20368;-79
2022/04/29 07:04:53;;;;;;;10.80;4.55;;;;;;;8.07;75.42;101396.78;5078241;28;20045;-78
2022/04/29 07:07:18;;;;;;;11.35;4.45;;;;;;;8.29;74.75;101395.31;5060150;28;20035;-78
2022/04/29 07:09:44;;;;;;;7.80;4.10;;;;;;;8.34;74.69;101391.16;5072590;28;20029;-77
2022/04/29 07:12:10;;;;;;;14.10;4.83;;;;;;;8.44;74.19;101388.31;5072483;28;20082;-78
2022/04/29 07:14:35;;;;;;;12.80;4.35;;;;;;;8.59;73.82;101396.56;5056544;28;20162;-77
2022/04/29 07:17:01;;;;;;;10.60;5.33;;;;;;;8.55;73.89;101392.53;5073147;28;20336;-77
2022/04/29 07:19:26;;;;;;;12.73;4.47;;;;;;;8.93;72.67;101393.69;5073301;28;20077;-78
2022/04/29 07:21:51;;;;;;;12.80;4.00;;;;;;;9.21;71.46;101400.31;5074109;28;20130;-77
2022/04/29 07:24:18;;;;;;;11.00;4.67;;;;;;;9.05;71.50;101392.28;5076989;28;20060;-78
2022/04/29 07:26:43;;;;;;;12.38;4.78;;;;;;;9.01;72.13;101380.19;5079020;28;20029;-78
2022/04/29 07:29:09;;;;;;;9.40;4.47;;;;;;;9.08;71.50;101375.81;5080710;28;20371;-77
2022/04/29 07:31:34;;;;;;;8.63;4.30;;;;;;;9.23;71.49;101379.47;5062009;28;20054;-78
2022/04/29 07:34:00;;;;;;;12.33;4.40;;;;;;;9.54;70.09;101370.63;5060414;28;20070;-78
2022/04/29 07:41:53;;;;;;;12.48;4.45;;;;;;;10.01;68.80;101366.00;5077207;28;20054;-77
2022/04/29 07:44:19;;;;;;;8.23;3.87;;;;;;;10.31;67.71;101374.22;5078275;28;20416;-77
2022/04/29 07:46:46;;;;;;;12.90;5.23;;;;;;;9.93;69.03;101382.19;5076698;28;20071;-77
2022/04/29 07:49:12;;;;;;;13.68;5.13;;;;;;;9.92;68.74;101374.28;5076257;28;20016;-77
2022/04/29 07:51:38;;;;;;;12.82;4.13;;;;;;;9.95;68.83;101363.16;5076326;28;20111;-77
2022/04/29 07:54:04;;;;;;;10.82;3.75;;;;;;;10.20;68.53;101366.56;5076055;28;20495;-78
2022/04/29 07:56:30;;;;;;;14.02;4.93;;;;;;;10.26;67.30;101366.69;5076022;28;20043;-76
2022/04/29 07:58:56;;;;;;;10.50;3.83;;;;;;;10.20;68.79;101369.28;5075969;28;20032;-76
2022/04/29 08:01:21;;;;;;;;;;;;;;;10.33;68.29;101367.66;5076187;28;20259;-76
2022/04/29 08:03:47;;;;;;;13.43;3.85;;;;;;;10.41;67.47;101364.88;5075341;28;19912;-76
2022/04/29 08:06:13;;;;;;;8.98;3.78;;;;;;;10.18;68.01;101372.09;5075939;28;20116;-78
2022/04/29 08:08:38;;;;;;;;;;;;;;;10.31;68.55;101363.47;5058793;28;20033;-76
2022/04/29 08:11:04;;;;;;;9.70;4.38;;;;;;;10.30;67.66;101369.84;5075593;28;19915;-75
2022/04/29 08:13:30;;;;;;;10.65;4.32;;;;;;;10.39;68.16;101371.50;5075277;28;20131;-78
2022/04/29 08:15:55;;;;;;;;;;;;;;;10.55;67.28;101365.97;5077235;28;20520;-77
2022/04/29 08:18:20;;;;;;;9.95;4.57;;;;;;;10.47;67.87;101367.88;5075221;28;19991;-76
2022/04/29 08:20:46;;;;;;;8.43;4.03;;;;;;;10.42;67.55;101368.41;5075380;28;20391;-76
2022/04/29 08:23:12;;;;;;;11.50;5.25;;;;;;;10.25;68.11;101369.56;5075593;28;20301;-76
2022/04/29 08:25:37;;;;;;;12.60;4.50;;;;;;;10.34;67.60;101368.50;5074998;28;20490;-76
2022/04/29 08:28:04;;;;;;;8.90;3.92;;;;;;;10.36;68.34;101369.16;5075489;28;20032;-75
2022/04/29 08:30:30;;;;;;;13.48;4.65;;;;;;;10.55;67.17;101365.97;5074937;28;20039;-75
2022/04/29 08:32:57;;;;;;;12.90;4.03;;;;;;;10.49;68.07;101377.44;5075125;28;20403;-77
2022/04/29 08:35:22;;;;;;;11.02;4.68;;;;;;;10.53;67.56;101375.25;5074733;28;20040;-77
2022/04/29 08:37:47;;;;;;;9.40;4.05;;;;;;;10.37;67.51;101373.53;5076673;28;20036;-77
2022/04/29 08:40:13;;;;;;;10.43;4.60;;;;;;;10.55;67.88;101378.59;5075452;28;20055;-77
2022/04/29 08:42:40;;;;;;;8.65;4.28;;;;;;;10.73;66.79;101384.50;5075678;28;20071;-77
2022/04/29 08:45:08;;;;;;;12.63;4.50;;;;;;;10.63;66.88;101373.97;5075181;28;20410;-77
2022/04/29 08:47:41;;;;;;;11.75;4.32;;;;;;;10.78;67.15;101376.69;5074858;28;20028;-77
2022/04/29 08:50:10;;;;;;;12.75;5.32;;;;;;;10.88;66.72;101376.44;5074810;28;20138;-77
2022/04/29 08:52:36;;;;;;;12.13;5.00;;;;;;;10.77;66.14;101367.75;5056990;28;20544;-77
2022/04/29 09:00:32;;;;;;;12.65;4.43;;;;;;;11.14;65.19;101376.81;5074505;28;20044;-76
2022/04/29 09:02:59;;;;;;;10.77;4.88;;;;;;;11.18;64.62;101371.91;5076755;28;20033;-76
2022/04/29 09:05:25;;;;;;;12.05;4.57;;;;;;;11.30;63.97;101370.41;5074305;28;20049;-76
2022/04/29 09:08:00;;;;;;;9.35;4.78;;;;;;;11.39;63.57;101372.00;5074295;28;20031;-77
2022/04/29 09:10:36;;;;;;;11.35;4.50;;;;;;;11.23;64.65;101364.94;5074909;28;20402;-76
2022/04/29 09:13:10;;;;;;;11.33;5.10;;;;;;;11.17;64.65;101373.75;5074320;28;20033;-77
2022/04/29 09:15:36;;;;;;;11.23;4.47;;;;;;;11.24;64.29;101368.47;5074790;28;20032;-76
2022/04/29 09:18:02;;;;;;;12.48;4.53;;;;;;;11.66;63.30;101373.16;5074539;28;20386;-76
2022/04/29 09:20:37;;;;;;;11.63;4.88;;;;;;;11.72;62.96;101375.09;5074108;28;20028;-77
2022/04/29 09:23:02;;;;;;;12.05;5.03;;;;;;;12.10;61.59;101373.09;5074235;28;20036;-77
2022/04/29 09:25:34;;;;;;;10.70;4.67;;;;;;;11.87;61.97;101367.84;5073962;28;20036;-77
2022/04/29 09:28:02;;;;;;;13.65;4.55;;;;;;;11.86;61.72;101373.44;5073825;28;20028;-77
2022/04/29 09:30:32;;;;;;;11.50;4.60;;;;;;;11.94;62.27;101374.16;5056380;28;20036;-78
2022/04/29 09:32:58;;;;;;;9.93;4.22;;;;;;;12.21;61.33;101369.88;5073935;28;20142;-78
2022/04/29 09:35:40;;;;;;;15.30;4.50;;;;;;;12.17;61.60;101374.00;5074506;28;20475;-77
2022/04/29 09:40:52;;;;;;;10.50;4.22;;;;;;;12.52;61.07;101381.22;5073846;28;20086;-78
2022/04/29 09:43:32;;;;;;;13.82;4.10;;;;;;;12.16;61.14;101375.88;5073724;28;20039;-77
2022/04/29 09:46:27;;;;;;;11.00;4.00;;;;;;;12.23;61.71;101366.97;5073243;28;20032;-78
2022/04/29 09:49:06;;;;;;;10.15;4.75;;;;;;;12.07;61.15;101377.00;5035387;28;20127;-78
2022/04/29 09:51:39;;;;;;;8.48;3.90;;;;;;;12.23;60.75;101372.38;5073950;28;20497;-78
2022/04/29 09:54:11;;;;;;;11.07;4.43;;;;;;;12.22;60.76;101374.25;5074004;28;20024;-77
2022/04/29 09:56:38;;;;;;;12.27;4.72;;;;;;;11.91;61.25;101369.16;5056075;28;20032;-77
2022/04/29 09:59:04;;;;;;;8.95;4.15;;;;;;;12.35;60.18;101371.69;5073516;28;20117;-77
2022/04/29 10:01:29;;;;;;;;;;;;;;;12.38;59.58;101371.28;5074307;28;20036;-77
2022/04/29 10:03:55;;;;;;;10.67;4.47;;;;;;;12.26;60.53;101370.13;5073100;28;19916;-76
2022/04/29 10:06:21;;;;;;;;;;;;;;;12.21;61.26;101372.56;5077878;28;20718;-77
2022/04/29 10:08:50;;;;;;;11.65;4.82;;;;;;;12.48;60.80;101368.28;5078519;28;20339;-79
2022/04/29 10:11:17;;;;;;;8.07;3.65;;;;;;;12.79;60.06;101362.50;5075399;28;20040;-76
2022/04/29 10:13:45;;;;;;;10.32;4.28;;;;;;;12.91;59.62;101368.19;5073650;28;20078;-76
2022/04/29 10:16:11;;;;;;;9.13;3.80;;;;;;;13.26;58.70;101369.91;5072980;28;20032;-77
2022/04/29 10:21:25;;;;;;;10.18;3.85;;;;;;;13.01;58.93;101374.94;5073136;28;20097;-76
2022/04/29 10:23:51;;;;;;;7.68;3.15;;;;;;;13.02;58.55;101371.19;5072788;28;20029;-77
2022/04/29 10:26:21;;;;;;;7.55;2.85;;;;;;;13.29;58.47;101374.09;5074465;28;20060;-77
2022/04/29 10:28:47;;;;;;;10.45;3.58;;;;;;;13.31;57.74;101372.84;5055542;28;20128;-77
2022/04/29 10:31:18;;;;;;;8.00;3.75;;;;;;;13.28;57.13;101373.25;5073222;28;20040;-77
2022/04/29 10:33:44;;;;;;;6.78;3.15;;;;;;;13.33;56.25;101370.78;5073110;28;20041;-76
2022/04/29 10:36:14;;;;;;;5.00;2.53;;;;;;;13.55;56.20;101375.06;5055389;28;20168;-76
2022/04/29 10:38:42;;;;;;;9.10;2.83;;;;;;;13.36;55.62;101374.97;5074707;28;20025;-78
2022/04/29 10:41:19;;;;;;;4.95;2.53;;;;;;;13.27;56.53;101377.00;5079474;28;20143;-78
2022/04/29 10:43:50;;;;;;;5.90;2.17;;;;;;;13.24;56.55;101379.28;5078733;28;20391;-78
2022/04/29 10:46:23;;;;;;;9.05;3.50;;;;;;;13.25;56.68;101375.53;5076791;28;20451;-77
2022/04/29 10:48:52;;;;;;;12.52;3.05;;;;;;;13.50;56.57;101372.13;5078046;28;20036;-77
2022/04/29 10:51:18;;;;;;;8.30;3.10;;;;;;;13.30;57.16;101373.88;5076692;28;20055;-77
2022/04/29 10:53:47;;;;;;;9.27;2.83;;;;;;;13.26;57.35;101375.31;5077565;28;20028;-77
2022/04/29 10:56:30;;;;;;;6.88;3.08;;;;;;;13.60;56.26;101366.34;5076097;28;20032;-78
2022/04/29 10:59:12;;;;;;;6.25;3.15;;;;;;;13.72;55.95;101370.16;5074408;28;20021;-77
2022/04/29 11:01:40;;;;;;;7.70;3.42;;;;;;;13.93;55.73;101368.34;5074355;28;20035;-76
2022/04/29 11:04:15;;;;;;;5.28;2.70;;;;;;;13.92;54.47;101363.97;5054721;28;20540;-77
2022/04/29 11:06:47;;;;;;;7.38;2.75;;;;;;;14.03;54.58;101361.47;5072940;28;20083;-77
2022/04/29 11:09:29;;;;;;;6.70;3.10;;;;;;;13.83;55.47;101360.59;5072820;28;20083;-77
2022/04/29 11:11:55;;;;;;;5.93;2.63;;;;;;;13.74;55.32;101362.66;5054871;28;20028;-77
2022/04/29 11:14:21;;;;;;;6.43;2.75;;;;;;;13.91;54.86;101355.00;5072480;28;20032;-77
2022/04/29 11:16:55;;;;;;;8.95;3.58;;;;;;;13.88;54.61;101348.13;5072757;28;20062;-77
2022/04/29 11:19:27;;;;;;;6.57;2.58;;;;;;;13.92;54.89;101342.28;5072503;28;20356;-76
2022/04/29 11:24:46;;;;;;;7.60;3.33;;;;;;;13.87;55.20;101348.31;5072749;28;20489;-77
2022/04/29 11:27:12;;;;;;;6.35;3.05;;;;;;;13.90;55.41;101350.63;5073095;28;20108;-77
2022/04/29 11:29:45;;;;;;;9.93;2.95;;;;;;;14.22;54.47;101339.00;5055061;28;20119;-76
2022/04/29 11:32:11;;;;;;;5.00;2.42;;;;;;;14.00;54.75;101340.22;5076914;28;20182;-77
2022/04/29 11:34:52;;;;;;;9.75;2.92;;;;;;;13.75;55.66;101333.69;5078025;28;20036;-78
2022/04/29 11:37:29;;;;;;;6.07;2.67;;;;;;;13.81;55.63;101331.00;5059831;28;20036;-77
2022/04/29 11:39:55;;;;;;;8.73;3.13;;;;;;;14.19;55.07;101327.72;5076525;28;20502;-78
2022/04/29 11:42:21;;;;;;;;;;;;;;;14.43;54.42;101319.03;5076449;28;20107;-78
2022/04/29 11:44:49;;;;;;;9.77;2.78;;;;;;;14.64;53.73;101314.44;5054944;28;19996;-78
2022/04/29 11:47:16;;;;;;;6.40;2.70;;;;;;;14.57;53.32;101317.16;5072876;28;20032;-77
2022/04/29 11:49:42;;;;;;;8.05;3.10;;;;;;;14.71;52.68;101304.41;5054914;28;20064;-77